sensor_id;sensor_type;location;lat;lon;timestamp;pressure;altitude;pressure_sealevel;temperature;humidity
35435;BME280;21556;55.782;37.528;2022-07-23T00:01:37;99717.97;;;20.22;100.00
35435;BME280;21556;55.782;37.528;2022-07-23T00:04:05;99715.56;;;20.11;100.00
35435;BME280;21556;55.782;37.528;2022-07-23T00:06:31;99721.09;;;20.01;100.00
35435;BME280;21556;55.782;37.528;2022-07-23T00:09:02;99707.97;;;19.93;100.00
35435;BME280;21556;55.782;37.528;2022-07-23T00:11:51;99716.94;;;19.89;100.00
35435;BME280;21556;55.782;37.528;2022-07-23T00:14:19;99716.13;;;19.85;100.00
35435;BME280;21556;55.782;37.528;2022-07-23T00:16:47;99729.63;;;19.76;100.00
35435;BME280;21556;55.782;37.528;2022-07-23T00:19:13;99718.13;;;19.74;100.00
35435;BME280;21556;55.782;37.528;2022-07-23T00:21:39;99722.63;;;19.70;100.00
35435;BME280;21556;55.782;37.528;2022-07-23T00:24:10;99721.13;;;19.57;100.00
35435;BME280;21556;55.782;37.528;2022-07-23T00:26:38;99724.69;;;19.55;100.00
35435;BME280;21556;55.782;37.528;2022-07-23T00:29:07;99727.47;;;19.50;100.00
35435;BME280;21556;55.782;37.528;2022-07-23T00:31:36;99730.25;;;19.42;100.00
35435;BME280;21556;55.782;37.528;2022-07-23T00:34:08;99724.09;;;19.40;100.00
35435;BME280;21556;55.782;37.528;2022-07-23T00:36:52;99730.38;;;19.35;100.00
35435;BME280;21556;55.782;37.528;2022-07-23T00:39:26;99725.22;;;19.27;100.00
35435;BME280;21556;55.782;37.528;2022-07-23T00:41:55;99729.75;;;19.22;100.00
35435;BME280;21556;55.782;37.528;2022-07-23T00:44:37;99728.94;;;19.17;100.00
35435;BME280;21556;55.782;37.528;2022-07-23T00:47:04;99728.97;;;19.15;100.00
35435;BME280;21556;55.782;37.528;2022-07-23T00:49:31;99724.63;;;19.11;100.00
35435;BME280;21556;55.782;37.528;2022-07-23T00:52:05;99733.53;;;19.10;100.00
35435;BME280;21556;55.782;37.528;2022-07-23T00:54:34;99729.06;;;19.11;100.00
35435;BME280;21556;55.782;37.528;2022-07-23T00:57:24;99731.72;;;19.11;100.00
35435;BME280;21556;55.782;37.528;2022-07-23T00:59:52;99737.00;;;19.14;100.00
35435;BME280;21556;55.782;37.528;2022-07-23T01:02:20;99731.69;;;19.14;100.00
35435;BME280;21556;55.782;37.528;2022-07-23T01:04:48;99724.69;;;19.08;100.00
35435;BME280;21556;55.782;37.528;2022-07-23T01:07:17;99730.91;;;19.06;100.00
35435;BME280;21556;55.782;37.528;2022-07-23T01:09:49;99735.22;;;19.14;100.00
35435;BME280;21556;55.782;37.528;2022-07-23T01:12:18;99734.16;;;19.23;100.00
35435;BME280;21556;55.782;37.528;2022-07-23T01:14:45;99736.88;;;19.21;100.00
35435;BME280;21556;55.782;37.528;2022-07-23T01:17:14;99735.22;;;19.14;100.00
35435;BME280;21556;55.782;37.528;2022-07-23T01:19:42;99737.19;;;19.02;100.00
35435;BME280;21556;55.782;37.528;2022-07-23T01:22:10;99733.63;;;19.03;100.00
35435;BME280;21556;55.782;37.528;2022-07-23T01:24:39;99732.78;;;19.00;100.00
35435;BME280;21556;55.782;37.528;2022-07-23T01:27:11;99730.13;;;18.99;100.00
35435;BME280;21556;55.782;37.528;2022-07-23T01:29:44;99745.34;;;18.92;100.00
35435;BME280;21556;55.782;37.528;2022-07-23T01:32:18;99737.47;;;18.86;100.00
35435;BME280;21556;55.782;37.528;2022-07-23T01:34:46;99743.56;;;18.91;100.00
35435;BME280;21556;55.782;37.528;2022-07-23T01:37:15;99729.31;;;18.97;100.00
35435;BME280;21556;55.782;37.528;2022-07-23T01:39:40;99741.84;;;18.89;100.00
35435;BME280;21556;55.782;37.528;2022-07-23T01:42:11;99736.69;;;18.81;100.00
35435;BME280;21556;55.782;37.528;2022-07-23T01:44:43;99730.53;;;18.78;100.00
35435;BME280;21556;55.782;37.528;2022-07-23T01:47:17;99726.13;;;18.75;100.00
35435;BME280;21556;55.782;37.528;2022-07-23T01:49:46;99734.97;;;18.75;100.00
35435;BME280;21556;55.782;37.528;2022-07-23T01:52:34;99724.25;;;18.80;100.00
35435;BME280;21556;55.782;37.528;2022-07-23T01:55:03;99734.97;;;18.75;100.00
35435;BME280;21556;55.782;37.528;2022-07-23T01:57:41;99736.78;;;18.73;100.00
35435;BME280;21556;55.782;37.528;2022-07-23T02:00:14;99733.19;;;18.76;100.00
35435;BME280;21556;55.782;37.528;2022-07-23T02:02:44;99734.91;;;18.80;100.00
35435;BME280;21556;55.782;37.528;2022-07-23T02:05:15;99732.94;;;18.91;100.00
35435;BME280;21556;55.782;37.528;2022-07-23T02:07:44;99732.06;;;18.92;100.00
35435;BME280;21556;55.782;37.528;2022-07-23T02:10:13;99726.78;;;18.89;100.00
35435;BME280;21556;55.782;37.528;2022-07-23T02:12:41;99716.19;;;18.86;100.00
35435;BME280;21556;55.782;37.528;2022-07-23T02:15:29;99728.75;;;18.78;100.00
35435;BME280;21556;55.782;37.528;2022-07-23T02:17:57;99724.34;;;18.75;100.00
35435;BME280;21556;55.782;37.528;2022-07-23T02:20:26;99728.84;;;18.69;100.00
35435;BME280;21556;55.782;37.528;2022-07-23T02:22:54;99730.63;;;18.71;100.00
35435;BME280;21556;55.782;37.528;2022-07-23T02:25:26;99733.19;;;18.78;100.00
35435;BME280;21556;55.782;37.528;2022-07-23T02:28:00;99724.31;;;18.77;100.00
35435;BME280;21556;55.782;37.528;2022-07-23T02:30:29;99726.06;;;18.80;100.00
35435;BME280;21556;55.782;37.528;2022-07-23T02:32:57;99730.44;;;18.81;100.00
35435;BME280;21556;55.782;37.528;2022-07-23T02:35:29;99726.88;;;18.83;100.00
35435;BME280;21556;55.782;37.528;2022-07-23T02:38:04;99724.91;;;18.94;100.00
35435;BME280;21556;55.782;37.528;2022-07-23T02:40:33;99722.28;;;18.93;100.00
35435;BME280;21556;55.782;37.528;2022-07-23T02:43:04;99732.16;;;18.86;100.00
35435;BME280;21556;55.782;37.528;2022-07-23T02:45:34;99723.22;;;18.90;100.00
35435;BME280;21556;55.782;37.528;2022-07-23T02:48:00;99722.31;;;18.91;100.00
35435;BME280;21556;55.782;37.528;2022-07-23T02:50:29;99729.22;;;19.02;100.00
35435;BME280;21556;55.782;37.528;2022-07-23T02:52:57;99727.44;;;19.04;100.00
35435;BME280;21556;55.782;37.528;2022-07-23T02:55:24;99731.00;;;19.01;100.00
35435;BME280;21556;55.782;37.528;2022-07-23T02:57:49;99722.94;;;19.07;100.00
35435;BME280;21556;55.782;37.528;2022-07-23T03:00:20;99727.44;;;19.04;100.00
35435;BME280;21556;55.782;37.528;2022-07-23T03:02:51;99730.09;;;19.04;100.00
35435;BME280;21556;55.782;37.528;2022-07-23T03:05:21;99726.38;;;19.12;100.00
35435;BME280;21556;55.782;37.528;2022-07-23T03:07:50;99737.88;;;19.13;100.00
35435;BME280;21556;55.782;37.528;2022-07-23T03:10:19;99734.19;;;19.21;100.00
35435;BME280;21556;55.782;37.528;2022-07-23T03:12:47;99733.44;;;19.15;100.00
35435;BME280;21556;55.782;37.528;2022-07-23T03:15:16;99738.78;;;19.12;100.00
35435;BME280;21556;55.782;37.528;2022-07-23T03:17:41;99737.88;;;19.13;100.00
35435;BME280;21556;55.782;37.528;2022-07-23T03:20:10;99734.19;;;19.21;100.00
35435;BME280;21556;55.782;37.528;2022-07-23T03:22:40;99744.72;;;19.28;100.00
35435;BME280;21556;55.782;37.528;2022-07-23T03:25:28;99741.91;;;19.35;100.00
35435;BME280;21556;55.782;37.528;2022-07-23T03:27:56;99741.09;;;19.32;100.00
35435;BME280;21556;55.782;37.528;2022-07-23T03:30:30;99744.34;;;19.47;100.00
35435;BME280;21556;55.782;37.528;2022-07-23T03:32:56;99739.09;;;19.44;100.00
35435;BME280;21556;55.782;37.528;2022-07-23T03:35:24;99745.22;;;19.48;100.00
35435;BME280;21556;55.782;37.528;2022-07-23T03:38:06;99741.53;;;19.55;100.00
35435;BME280;21556;55.782;37.528;2022-07-23T03:40:36;99736.19;;;19.57;100.00
35435;BME280;21556;55.782;37.528;2022-07-23T03:43:05;99741.38;;;19.64;100.00
35435;BME280;21556;55.782;37.528;2022-07-23T03:45:30;99736.84;;;19.69;100.00
35435;BME280;21556;55.782;37.528;2022-07-23T03:47:56;99737.63;;;19.76;100.00
35435;BME280;21556;55.782;37.528;2022-07-23T03:50:22;99738.50;;;19.75;100.00
35435;BME280;21556;55.782;37.528;2022-07-23T03:52:51;99733.88;;;19.85;100.00
35435;BME280;21556;55.782;37.528;2022-07-23T03:55:17;99738.38;;;19.83;100.00
35435;BME280;21556;55.782;37.528;2022-07-23T03:57:45;99732.06;;;19.87;100.00
35435;BME280;21556;55.782;37.528;2022-07-23T04:00:13;99737.91;;;20.04;100.00
35435;BME280;21556;55.782;37.528;2022-07-23T04:02:45;99737.88;;;20.06;100.00
35435;BME280;21556;55.782;37.528;2022-07-23T04:05:14;99735.00;;;20.15;100.00
35435;BME280;21556;55.782;37.528;2022-07-23T04:07:46;99734.13;;;20.16;100.00
35435;BME280;21556;55.782;37.528;2022-07-23T04:10:12;99733.78;;;20.30;100.00
35435;BME280;21556;55.782;37.528;2022-07-23T04:12:44;99737.19;;;20.36;100.00
35435;BME280;21556;55.782;37.528;2022-07-23T04:15:14;99737.09;;;20.41;100.00
35435;BME280;21556;55.782;37.528;2022-07-23T04:17:40;99745.78;;;20.49;100.00
35435;BME280;21556;55.782;37.528;2022-07-23T04:20:09;99728.91;;;20.50;100.00
35435;BME280;21556;55.782;37.528;2022-07-23T04:22:47;99743.84;;;20.59;100.00
35435;BME280;21556;55.782;37.528;2022-07-23T04:25:18;99739.81;;;20.78;100.00
35435;BME280;21556;55.782;37.528;2022-07-23T04:27:47;99736.19;;;20.81;100.00
35435;BME280;21556;55.782;37.528;2022-07-23T04:30:12;99736.00;;;20.88;100.00
35435;BME280;21556;55.782;37.528;2022-07-23T04:32:43;99732.94;;;21.04;100.00
35435;BME280;21556;55.782;37.528;2022-07-23T04:35:17;99733.47;;;21.18;100.00
35435;BME280;21556;55.782;37.528;2022-07-23T04:37:49;99738.53;;;21.27;100.00
35435;BME280;21556;55.782;37.528;2022-07-23T04:40:22;99745.53;;;21.31;100.00
35435;BME280;21556;55.782;37.528;2022-07-23T04:42:51;99741.72;;;21.43;100.00
35435;BME280;21556;55.782;37.528;2022-07-23T04:45:17;99736.31;;;21.46;100.00
35435;BME280;21556;55.782;37.528;2022-07-23T04:47:50;99735.03;;;21.59;100.00
35435;BME280;21556;55.782;37.528;2022-07-23T04:50:18;99727.88;;;21.60;100.00
35435;BME280;21556;55.782;37.528;2022-07-23T04:52:49;99732.91;;;21.72;100.00
35435;BME280;21556;55.782;37.528;2022-07-23T04:55:17;99724.81;;;21.75;100.00
35435;BME280;21556;55.782;37.528;2022-07-23T04:57:46;99731.72;;;21.82;100.00
35435;BME280;21556;55.782;37.528;2022-07-23T05:00:12;99728.72;;;21.93;100.00
35435;BME280;21556;55.782;37.528;2022-07-23T05:02:41;99721.31;;;22.03;100.00
35435;BME280;21556;55.782;37.528;2022-07-23T05:05:09;99721.13;;;22.09;100.00
35435;BME280;21556;55.782;37.528;2022-07-23T05:07:38;99717.41;;;22.15;100.00
35435;BME280;21556;55.782;37.528;2022-07-23T05:10:06;99708.34;;;22.20;100.00
35435;BME280;21556;55.782;37.528;2022-07-23T05:12:32;99713.56;;;22.25;100.00
35435;BME280;21556;55.782;37.528;2022-07-23T05:17:47;99707.97;;;22.32;100.00
35435;BME280;21556;55.782;37.528;2022-07-23T05:20:19;99711.41;;;22.36;100.00
35435;BME280;21556;55.782;37.528;2022-07-23T05:22:45;99711.16;;;22.44;100.00
35435;BME280;21556;55.782;37.528;2022-07-23T05:25:11;99711.81;;;22.52;100.00
35435;BME280;21556;55.782;37.528;2022-07-23T05:27:40;99707.13;;;22.58;100.00
35435;BME280;21556;55.782;37.528;2022-07-23T05:30:08;99709.50;;;22.68;100.00
35435;BME280;21556;55.782;37.528;2022-07-23T05:32:41;99716.50;;;22.72;100.00
35435;BME280;21556;55.782;37.528;2022-07-23T05:35:16;99707.25;;;22.82;100.00
35435;BME280;21556;55.782;37.528;2022-07-23T05:38:13;99708.81;;;22.89;100.00
35435;BME280;21556;55.782;37.528;2022-07-23T05:40:41;99703.03;;;23.03;100.00
35435;BME280;21556;55.782;37.528;2022-07-23T05:43:09;99706.50;;;23.05;100.00
35435;BME280;21556;55.782;37.528;2022-07-23T05:45:38;99694.53;;;23.17;100.00
35435;BME280;21556;55.782;37.528;2022-07-23T05:48:09;99694.94;;;23.29;100.00
35435;BME280;21556;55.782;37.528;2022-07-23T05:50:49;99700.91;;;23.38;100.00
35435;BME280;21556;55.782;37.528;2022-07-23T05:53:43;99695.03;;;23.51;100.00
35435;BME280;21556;55.782;37.528;2022-07-23T05:56:16;99701.72;;;23.65;100.00
35435;BME280;21556;55.782;37.528;2022-07-23T05:58:45;99699.13;;;23.87;100.00
35435;BME280;21556;55.782;37.528;2022-07-23T06:01:19;99692.44;;;23.98;100.00
35435;BME280;21556;55.782;37.528;2022-07-23T06:03:53;99691.28;;;24.27;100.00
35435;BME280;21556;55.782;37.528;2022-07-23T06:06:36;99684.78;;;24.57;100.00
35435;BME280;21556;55.782;37.528;2022-07-23T06:09:04;99686.56;;;24.78;100.00
35435;BME280;21556;55.782;37.528;2022-07-23T06:11:33;99696.84;;;24.89;100.00
35435;BME280;21556;55.782;37.528;2022-07-23T06:14:10;99687.97;;;24.87;100.00
35435;BME280;21556;55.782;37.528;2022-07-23T06:16:54;99686.53;;;25.00;100.00
35435;BME280;21556;55.782;37.528;2022-07-23T06:19:24;99683.56;;;25.28;100.00
35435;BME280;21556;55.782;37.528;2022-07-23T06:21:56;99684.88;;;25.59;100.00
35435;BME280;21556;55.782;37.528;2022-07-23T06:24:27;99686.69;;;25.79;100.00
35435;BME280;21556;55.782;37.528;2022-07-23T06:26:56;99683.16;;;25.97;100.00
35435;BME280;21556;55.782;37.528;2022-07-23T06:29:25;99688.47;;;25.78;100.00
35435;BME280;21556;55.782;37.528;2022-07-23T06:31:54;99678.03;;;26.10;100.00
35435;BME280;21556;55.782;37.528;2022-07-23T06:34:26;99684.88;;;26.17;100.00
35435;BME280;21556;55.782;37.528;2022-07-23T06:37:01;99671.63;;;26.50;100.00
35435;BME280;21556;55.782;37.528;2022-07-23T06:39:34;99670.00;;;26.65;100.00
35435;BME280;21556;55.782;37.528;2022-07-23T06:42:07;99666.53;;;26.63;100.00
35435;BME280;21556;55.782;37.528;2022-07-23T06:44:41;99670.50;;;26.73;100.00
35435;BME280;21556;55.782;37.528;2022-07-23T06:47:13;99670.50;;;26.91;100.00
35435;BME280;21556;55.782;37.528;2022-07-23T06:49:42;99670.31;;;27.13;100.00
35435;BME280;21556;55.782;37.528;2022-07-23T06:52:14;99671.59;;;26.86;100.00
35435;BME280;21556;55.782;37.528;2022-07-23T06:54:42;99665.66;;;26.62;100.00
35435;BME280;21556;55.782;37.528;2022-07-23T06:57:10;99667.56;;;26.78;100.00
35435;BME280;21556;55.782;37.528;2022-07-23T06:59:39;99669.28;;;27.15;100.00
35435;BME280;21556;55.782;37.528;2022-07-23T07:02:08;99672.91;;;27.14;100.00
35435;BME280;21556;55.782;37.528;2022-07-23T07:04:40;99668.97;;;27.54;100.00
35435;BME280;21556;55.782;37.528;2022-07-23T07:07:08;99674.81;;;27.63;100.00
35435;BME280;21556;55.782;37.528;2022-07-23T07:09:34;99661.50;;;27.59;100.00
35435;BME280;21556;55.782;37.528;2022-07-23T07:12:06;99665.69;;;27.49;100.00
35435;BME280;21556;55.782;37.528;2022-07-23T07:14:31;99669.31;;;27.81;100.00
35435;BME280;21556;55.782;37.528;2022-07-23T07:17:23;99668.56;;;27.95;100.00
35435;BME280;21556;55.782;37.528;2022-07-23T07:19:51;99665.19;;;27.92;100.00
35435;BME280;21556;55.782;37.528;2022-07-23T07:22:19;99666.16;;;28.54;100.00
35435;BME280;21556;55.782;37.528;2022-07-23T07:24:48;99662.69;;;29.28;92.62
35435;BME280;21556;55.782;37.528;2022-07-23T07:27:19;99670.09;;;29.83;83.96
35435;BME280;21556;55.782;37.528;2022-07-23T07:29:48;99669.03;;;29.86;76.04
35435;BME280;21556;55.782;37.528;2022-07-23T07:32:16;99658.53;;;30.64;74.38
35435;BME280;21556;55.782;37.528;2022-07-23T07:34:44;99650.28;;;31.45;62.22
35435;BME280;21556;55.782;37.528;2022-07-23T07:37:12;99650.28;;;31.45;55.36
35435;BME280;21556;55.782;37.528;2022-07-23T07:39:40;99652.34;;;31.67;53.06
35435;BME280;21556;55.782;37.528;2022-07-23T07:42:08;99655.16;;;31.65;55.20
35435;BME280;21556;55.782;37.528;2022-07-23T07:44:37;99652.22;;;31.69;53.97
35435;BME280;21556;55.782;37.528;2022-07-23T07:47:05;99659.63;;;31.67;58.18
35435;BME280;21556;55.782;37.528;2022-07-23T07:49:37;99655.31;;;32.13;50.55
35435;BME280;21556;55.782;37.528;2022-07-23T07:52:06;99660.00;;;31.99;47.42
35435;BME280;21556;55.782;37.528;2022-07-23T07:54:34;99661.25;;;30.91;53.77
35435;BME280;21556;55.782;37.528;2022-07-23T07:57:10;99674.13;;;30.05;62.50
35435;BME280;21556;55.782;37.528;2022-07-23T08:07:16;99655.31;;;32.74;47.75
35435;BME280;21556;55.782;37.528;2022-07-23T08:09:44;99656.38;;;33.20;43.46
35435;BME280;21556;55.782;37.528;2022-07-23T08:12:13;99654.47;;;32.98;41.82
35435;BME280;21556;55.782;37.528;2022-07-23T08:14:44;99662.53;;;33.68;45.87
35435;BME280;21556;55.782;37.528;2022-07-23T08:17:12;99653.75;;;34.10;41.67
35435;BME280;21556;55.782;37.528;2022-07-23T08:19:39;99663.69;;;32.71;45.50
35435;BME280;21556;55.782;37.528;2022-07-23T08:22:05;99657.41;;;31.84;47.90
35435;BME280;21556;55.782;37.528;2022-07-23T08:24:34;99667.59;;;32.06;46.61
35435;BME280;21556;55.782;37.528;2022-07-23T08:27:03;99655.16;;;32.41;44.94
35435;BME280;21556;55.782;37.528;2022-07-23T08:29:29;99650.97;;;33.31;39.47
35435;BME280;21556;55.782;37.528;2022-07-23T08:31:54;99652.03;;;33.97;38.75
35435;BME280;21556;55.782;37.528;2022-07-23T08:34:20;99647.78;;;34.27;38.08
35435;BME280;21556;55.782;37.528;2022-07-23T08:36:45;99649.53;;;33.49;39.34
35435;BME280;21556;55.782;37.528;2022-07-23T08:39:11;99651.78;;;33.56;38.31
35435;BME280;21556;55.782;37.528;2022-07-23T08:41:38;99646.59;;;33.64;38.02
35435;BME280;21556;55.782;37.528;2022-07-23T08:44:06;99647.41;;;33.42;39.61
35435;BME280;21556;55.782;37.528;2022-07-23T08:46:34;99646.34;;;33.56;38.73
35435;BME280;21556;55.782;37.528;2022-07-23T08:49:01;99645.72;;;33.74;38.76
35435;BME280;21556;55.782;37.528;2022-07-23T08:51:27;99641.28;;;34.07;38.12
35435;BME280;21556;55.782;37.528;2022-07-23T08:53:56;99639.66;;;33.82;38.60
35435;BME280;21556;55.782;37.528;2022-07-23T08:56:25;99635.63;;;33.99;38.66
35435;BME280;21556;55.782;37.528;2022-07-23T08:58:52;99625.81;;;34.62;35.72
35435;BME280;21556;55.782;37.528;2022-07-23T09:01:18;99624.06;;;34.72;35.13
35435;BME280;21556;55.782;37.528;2022-07-23T09:03:44;99620.25;;;35.38;34.78
35435;BME280;21556;55.782;37.528;2022-07-23T09:06:10;99634.59;;;33.89;38.18
35435;BME280;21556;55.782;37.528;2022-07-23T09:08:37;99639.47;;;32.92;44.01
35435;BME280;21556;55.782;37.528;2022-07-23T09:11:04;99637.72;;;32.56;45.49
35435;BME280;21556;55.782;37.528;2022-07-23T09:15:57;99628.69;;;32.79;43.44
35435;BME280;21556;55.782;37.528;2022-07-23T09:18:44;99629.81;;;33.12;41.93
35435;BME280;21556;55.782;37.528;2022-07-23T09:21:17;99622.28;;;33.16;41.93
35435;BME280;21556;55.782;37.528;2022-07-23T09:23:47;99623.34;;;33.02;40.31
35435;BME280;21556;55.782;37.528;2022-07-23T09:28:52;99619.06;;;33.22;39.29
35435;BME280;21556;55.782;37.528;2022-07-23T09:31:18;99630.19;;;32.59;42.14
35435;BME280;21556;55.782;37.528;2022-07-23T09:33:46;99631.47;;;31.29;47.01
35435;BME280;21556;55.782;37.528;2022-07-23T09:36:12;99627.22;;;30.60;55.91
35435;BME280;21556;55.782;37.528;2022-07-23T09:38:48;99643.75;;;30.28;59.65
35435;BME280;21556;55.782;37.528;2022-07-23T09:41:15;99626.56;;;32.11;51.86
35435;BME280;21556;55.782;37.528;2022-07-23T09:43:41;99627.91;;;32.29;49.16
35435;BME280;21556;55.782;37.528;2022-07-23T09:46:23;99620.44;;;32.20;48.05
35435;BME280;21556;55.782;37.528;2022-07-23T09:48:50;99616.38;;;32.02;47.69
35435;BME280;21556;55.782;37.528;2022-07-23T09:51:17;99620.88;;;32.27;46.27
35435;BME280;21556;55.782;37.528;2022-07-23T09:53:50;99607.16;;;32.65;45.91
35435;BME280;21556;55.782;37.528;2022-07-23T09:56:17;99600.69;;;32.55;46.47
35435;BME280;21556;55.782;37.528;2022-07-23T09:58:49;99615.88;;;32.93;44.19
35435;BME280;21556;55.782;37.528;2022-07-23T10:01:16;99613.22;;;32.69;43.65
35435;BME280;21556;55.782;37.528;2022-07-23T10:03:42;99609.78;;;33.13;43.59
35435;BME280;21556;55.782;37.528;2022-07-23T10:06:43;99611.25;;;31.48;48.96
35435;BME280;21556;55.782;37.528;2022-07-23T10:09:32;99610.06;;;32.14;47.09
35435;BME280;21556;55.782;37.528;2022-07-23T10:12:22;99606.88;;;32.20;45.96
35435;BME280;21556;55.782;37.528;2022-07-23T10:15:07;99608.94;;;32.17;44.45
35435;BME280;21556;55.782;37.528;2022-07-23T10:17:33;99610.19;;;32.36;43.47
35435;BME280;21556;55.782;37.528;2022-07-23T10:19:59;99614.03;;;30.95;51.66
35435;BME280;21556;55.782;37.528;2022-07-23T10:22:29;99612.72;;;30.88;53.17
35435;BME280;21556;55.782;37.528;2022-07-23T10:37:51;99586.25;;;33.47;37.33
35435;BME280;21556;55.782;37.528;2022-07-23T10:40:19;99587.63;;;33.64;36.81
35435;BME280;21556;55.782;37.528;2022-07-23T10:42:47;99574.13;;;34.08;34.93
35435;BME280;21556;55.782;37.528;2022-07-23T10:47:51;99566.00;;;33.63;37.66
35435;BME280;21556;55.782;37.528;2022-07-23T10:50:24;99573.81;;;32.98;38.27
35435;BME280;21556;55.782;37.528;2022-07-23T10:58:00;99563.50;;;33.82;37.13
35435;BME280;21556;55.782;37.528;2022-07-23T11:00:26;99552.94;;;34.11;36.85
35435;BME280;21556;55.782;37.528;2022-07-23T11:03:00;99552.72;;;33.02;38.87
35435;BME280;21556;55.782;37.528;2022-07-23T11:06:00;99560.84;;;31.95;43.24
35435;BME280;21556;55.782;37.528;2022-07-23T11:08:21;99563.00;;;31.40;50.29
35435;BME280;21556;55.782;37.528;2022-07-23T11:10:48;99557.03;;;31.22;48.83
35435;BME280;21556;55.782;37.528;2022-07-23T11:21:48;99561.84;;;30.39;55.99
35435;BME280;21556;55.782;37.528;2022-07-23T11:32:06;99572.44;;;29.88;55.64
35435;BME280;21556;55.782;37.528;2022-07-23T11:34:40;99553.47;;;30.02;54.35
35435;BME280;21556;55.782;37.528;2022-07-23T11:37:07;99565.66;;;29.95;56.18
35435;BME280;21556;55.782;37.528;2022-07-23T11:39:34;99551.19;;;29.96;53.93
35435;BME280;21556;55.782;37.528;2022-07-23T11:42:01;99554.34;;;30.03;54.49
35435;BME280;21556;55.782;37.528;2022-07-23T11:44:31;99549.34;;;29.96;56.49
35435;BME280;21556;55.782;37.528;2022-07-23T11:46:59;99542.50;;;29.91;53.31
35435;BME280;21556;55.782;37.528;2022-07-23T11:49:26;99543.41;;;30.18;53.38
35435;BME280;21556;55.782;37.528;2022-07-23T11:54:51;99539.59;;;30.61;47.75
35435;BME280;21556;55.782;37.528;2022-07-23T11:57:18;99541.50;;;30.33;48.64
35435;BME280;21556;55.782;37.528;2022-07-23T11:59:47;99539.66;;;30.34;48.46
35435;BME280;21556;55.782;37.528;2022-07-23T12:02:14;99534.44;;;30.04;50.99
35435;BME280;21556;55.782;37.528;2022-07-23T12:04:41;99527.31;;;29.88;51.75
35435;BME280;21556;55.782;37.528;2022-07-23T12:09:48;99528.19;;;30.03;51.29
35435;BME280;21556;55.782;37.528;2022-07-23T12:12:14;99526.47;;;30.15;52.06
35435;BME280;21556;55.782;37.528;2022-07-23T12:14:53;99524.34;;;30.20;53.06
35435;BME280;21556;55.782;37.528;2022-07-23T12:17:20;99515.94;;;30.10;56.28
35435;BME280;21556;55.782;37.528;2022-07-23T12:19:47;99516.59;;;30.01;54.73
35435;BME280;21556;55.782;37.528;2022-07-23T12:22:13;99513.88;;;30.01;54.48
35435;BME280;21556;55.782;37.528;2022-07-23T12:27:20;99508.41;;;30.15;54.96
35435;BME280;21556;55.782;37.528;2022-07-23T12:29:46;99507.31;;;30.45;53.37
35435;BME280;21556;55.782;37.528;2022-07-23T12:32:19;99510.25;;;30.15;54.54
35435;BME280;21556;55.782;37.528;2022-07-23T12:34:45;99509.75;;;30.62;50.57
35435;BME280;21556;55.782;37.528;2022-07-23T12:37:31;99501.81;;;30.59;50.62
35435;BME280;21556;55.782;37.528;2022-07-23T12:39:57;99505.41;;;30.47;51.44
35435;BME280;21556;55.782;37.528;2022-07-23T12:42:23;99502.56;;;30.49;50.62
35435;BME280;21556;55.782;37.528;2022-07-23T12:45:02;99492.84;;;30.59;48.81
35435;BME280;21556;55.782;37.528;2022-07-23T12:47:29;99491.25;;;30.69;47.63
35435;BME280;21556;55.782;37.528;2022-07-23T12:49:54;99492.88;;;29.78;52.76
35435;BME280;21556;55.782;37.528;2022-07-23T12:52:20;99494.34;;;29.83;53.69
35435;BME280;21556;55.782;37.528;2022-07-23T12:54:46;99483.81;;;30.06;55.08
35435;BME280;21556;55.782;37.528;2022-07-23T12:57:11;99477.38;;;30.21;55.36
35435;BME280;21556;55.782;37.528;2022-07-23T12:59:37;99479.84;;;30.64;52.99
35435;BME280;21556;55.782;37.528;2022-07-23T13:02:03;99480.63;;;30.66;52.89
35435;BME280;21556;55.782;37.528;2022-07-23T13:04:29;99483.81;;;30.33;52.55
35435;BME280;21556;55.782;37.528;2022-07-23T13:06:57;99479.31;;;30.59;53.78
35435;BME280;21556;55.782;37.528;2022-07-23T13:09:24;99485.91;;;30.55;52.94
35435;BME280;21556;55.782;37.528;2022-07-23T13:11:51;99486.81;;;30.28;54.96
35435;BME280;21556;55.782;37.528;2022-07-23T13:14:18;99488.38;;;30.45;52.13
35435;BME280;21556;55.782;37.528;2022-07-23T13:16:44;99486.59;;;30.18;51.80
35435;BME280;21556;55.782;37.528;2022-07-23T13:19:10;99488.44;;;30.18;54.83
35435;BME280;21556;55.782;37.528;2022-07-23T13:21:36;99482.72;;;30.23;53.14
35435;BME280;21556;55.782;37.528;2022-07-23T13:24:02;99480.25;;;30.32;54.39
35435;BME280;21556;55.782;37.528;2022-07-23T13:26:28;99485.78;;;30.56;51.29
35435;BME280;21556;55.782;37.528;2022-07-23T13:28:53;99486.81;;;30.28;56.53
35435;BME280;21556;55.782;37.528;2022-07-23T13:31:19;99478.31;;;30.07;57.25
35435;BME280;21556;55.782;37.528;2022-07-23T13:33:45;99477.94;;;29.99;56.62
35435;BME280;21556;55.782;37.528;2022-07-23T13:36:11;99468.44;;;30.06;54.66
35435;BME280;21556;55.782;37.528;2022-07-23T13:38:37;99477.41;;;29.94;54.88
35435;BME280;21556;55.782;37.528;2022-07-23T13:41:04;99474.69;;;29.94;52.72
35435;BME280;21556;55.782;37.528;2022-07-23T13:43:30;99473.44;;;29.58;55.36
35435;BME280;21556;55.782;37.528;2022-07-23T13:45:55;99476.94;;;29.87;55.50
35435;BME280;21556;55.782;37.528;2022-07-23T13:48:21;99471.56;;;29.73;54.27
35435;BME280;21556;55.782;37.528;2022-07-23T13:50:47;99467.00;;;29.61;55.64
35435;BME280;21556;55.782;37.528;2022-07-23T13:53:17;99465.63;;;29.68;53.18
35435;BME280;21556;55.782;37.528;2022-07-23T13:55:44;99462.41;;;29.76;52.33
35435;BME280;21556;55.782;37.528;2022-07-23T13:58:10;99470.78;;;29.85;52.16
35435;BME280;21556;55.782;37.528;2022-07-23T14:00:40;99464.16;;;29.48;51.48